createdAt,value
2019-04-04T00:01:51.322Z,38.70
2019-04-04T00:04:37.203Z,38.80
2019-04-04T00:07:23.611Z,38.80
2019-04-04T00:10:09.308Z,38.80
2019-04-04T00:12:55.379Z,38.90
2019-04-04T00:15:45.335Z,38.70
2019-04-04T00:18:31.463Z,38.80
2019-04-04T00:21:17.149Z,38.70
2019-04-04T00:24:03.591Z,38.80
2019-04-04T00:26:49.875Z,38.70
2019-04-04T00:29:36.996Z,38.60
2019-04-04T00:32:23.460Z,38.70
2019-04-04T00:35:09.611Z,38.70
2019-04-04T00:37:55.895Z,38.70
2019-04-04T00:40:42.519Z,38.70
2019-04-04T00:43:29.548Z,38.60
2019-04-04T00:46:15.687Z,38.60
2019-04-04T00:49:04.586Z,38.60
2019-04-04T00:51:49.858Z,38.60
2019-04-04T00:54:35.985Z,38.50
2019-04-04T00:57:22.230Z,38.50
2019-04-04T01:00:08.677Z,38.50
2019-04-04T01:02:54.721Z,38.40
2019-04-04T01:05:40.943Z,38.40
2019-04-04T01:08:27.165Z,38.40
2019-04-04T01:11:13.500Z,38.30
2019-04-04T01:13:59.648Z,38.30
2019-04-04T01:16:45.928Z,38.20
2019-04-04T01:19:31.778Z,38.20
2019-04-04T01:22:18.107Z,38.10
2019-04-04T01:25:05.208Z,38.10
2019-04-04T01:27:51.631Z,38.10
2019-04-04T01:30:37.905Z,38.10
2019-04-04T01:33:24.149Z,38.10
2019-04-04T01:36:10.436Z,37.90
2019-04-04T01:38:58.097Z,37.90
2019-04-04T01:41:44.525Z,37.90
2019-04-04T01:44:30.807Z,37.90
2019-04-04T01:47:17.596Z,37.90
2019-04-04T01:50:04.400Z,37.80
2019-04-04T01:52:50.318Z,37.80
2019-04-04T01:55:36.692Z,37.70
2019-04-04T01:58:22.830Z,37.70
2019-04-04T02:01:09.130Z,37.60
2019-04-04T02:03:55.191Z,37.70
2019-04-04T02:06:41.468Z,37.60
2019-04-04T02:09:27.604Z,37.60
2019-04-04T02:12:13.730Z,37.60
2019-04-04T02:15:00.006Z,37.40
2019-04-04T02:17:46.276Z,37.50
2019-04-04T02:20:32.713Z,37.40
2019-04-04T02:23:18.789Z,37.40
2019-04-04T02:26:05.120Z,37.30
2019-04-04T02:28:51.619Z,37.30
2019-04-04T02:31:41.756Z,37.30
2019-04-04T02:34:27.656Z,37.30
2019-04-04T02:37:14.738Z,37.20
2019-04-04T02:40:01.149Z,37.10
2019-04-04T02:42:47.316Z,37.10
2019-04-04T02:45:35.734Z,37.10
2019-04-04T02:48:24.478Z,37.10
2019-04-04T02:51:08.851Z,37.10
2019-04-04T02:53:54.883Z,37.00
2019-04-04T02:56:41.242Z,36.90
2019-04-04T02:59:27.364Z,37.00
2019-04-04T03:02:13.492Z,36.90
2019-04-04T03:04:59.712Z,36.90
2019-04-04T03:07:46.104Z,36.90
2019-04-04T03:10:32.249Z,36.90
2019-04-04T03:13:18.465Z,36.80
2019-04-04T03:16:04.821Z,36.80
2019-04-04T03:18:50.821Z,36.80
2019-04-04T03:21:37.012Z,36.70
2019-04-04T03:24:23.334Z,36.70
2019-04-04T03:27:09.455Z,36.70
2019-04-04T03:29:55.955Z,36.70
2019-04-04T03:32:42.039Z,36.60
2019-04-04T03:35:29.205Z,36.70
2019-04-04T03:38:15.642Z,36.70
2019-04-04T03:41:01.652Z,36.60
2019-04-04T03:43:48.995Z,36.60
2019-04-04T03:46:38.864Z,36.60
2019-04-04T03:49:24.312Z,36.60
2019-04-04T03:52:11.626Z,36.60
2019-04-04T03:54:58.788Z,36.60
2019-04-04T03:57:44.527Z,36.50
2019-04-04T04:00:30.975Z,36.50
2019-04-04T04:03:16.963Z,36.50
2019-04-04T04:06:03.003Z,36.50
2019-04-04T04:08:53.667Z,36.50
2019-04-04T04:11:37.424Z,36.40
2019-04-04T04:14:24.389Z,36.50
2019-04-04T04:17:11.704Z,36.40
2019-04-04T04:19:58.198Z,36.40
2019-04-04T04:22:44.356Z,36.40
2019-04-04T04:25:35.291Z,36.40
2019-04-04T04:28:20.752Z,36.40
2019-04-04T04:31:06.858Z,36.30
2019-04-04T04:33:52.897Z,36.40
2019-04-04T04:36:39.304Z,36.30
2019-04-04T04:39:25.512Z,36.30
2019-04-04T04:42:12.400Z,36.40
2019-04-04T04:44:58.528Z,36.40
2019-04-04T04:47:44.687Z,36.40
2019-04-04T04:50:30.847Z,36.70
2019-04-04T04:53:18.934Z,36.90
2019-04-04T04:56:04.671Z,36.90
2019-04-04T04:58:51.039Z,37.40
2019-04-04T05:01:37.203Z,38.00
2019-04-04T05:04:23.424Z,38.50
2019-04-04T05:07:10.623Z,38.80
2019-04-04T05:09:56.876Z,38.50
2019-04-04T05:12:42.903Z,38.50
2019-04-04T05:15:30.430Z,38.40
2019-04-04T05:18:17.072Z,38.60
2019-04-04T05:21:03.235Z,38.40
2019-04-04T05:23:49.379Z,38.20
2019-04-04T05:26:38.426Z,38.10
2019-04-04T05:29:23.232Z,38.10
2019-04-04T05:32:09.103Z,37.90
2019-04-04T05:34:55.325Z,37.80
2019-04-04T05:37:41.508Z,37.60
2019-04-04T05:40:30.513Z,37.50
2019-04-04T05:43:16.440Z,37.30
2019-04-04T05:46:02.483Z,37.10
2019-04-04T05:48:48.233Z,36.90
2019-04-04T05:51:36.188Z,36.70
2019-04-04T05:54:22.028Z,36.60
2019-04-04T05:57:08.208Z,36.50
2019-04-04T05:59:55.966Z,36.30
2019-04-04T06:02:43.283Z,36.30
2019-04-04T06:05:31.821Z,36.20
2019-04-04T06:08:17.654Z,36.20
2019-04-04T06:11:03.853Z,36.00
2019-04-04T06:13:50.045Z,35.80
2019-04-04T06:16:36.325Z,35.50
2019-04-04T06:19:22.368Z,35.20
2019-04-04T06:22:09.099Z,35.00
2019-04-04T06:24:54.712Z,34.80
2019-04-04T06:27:40.969Z,34.60
2019-04-04T06:30:28.291Z,34.40
2019-04-04T06:33:14.377Z,34.20
2019-04-04T06:36:00.563Z,34.00
2019-04-04T06:38:49.721Z,33.80
2019-04-04T06:41:34.856Z,33.70
2019-04-04T06:44:21.089Z,34.10
2019-04-04T06:47:06.749Z,33.30
2019-04-04T06:49:53.023Z,33.20
2019-04-04T06:52:39.047Z,32.90
2019-04-04T06:55:28.453Z,32.80
2019-04-04T06:58:12.973Z,32.70
2019-04-04T07:00:59.233Z,32.60
2019-04-04T07:03:45.540Z,32.50
2019-04-04T07:06:31.745Z,32.40
2019-04-04T07:09:19.026Z,32.20
2019-04-04T07:12:06.684Z,32.20
2019-04-04T07:14:52.831Z,32.00
2019-04-04T07:17:40.268Z,31.90
2019-04-04T07:20:28.311Z,31.80
2019-04-04T07:23:14.556Z,31.70
2019-04-04T07:26:00.508Z,31.70
2019-04-04T07:28:49.619Z,31.60
2019-04-04T07:31:38.022Z,31.50
2019-04-04T07:34:21.662Z,31.30
2019-04-04T07:37:07.832Z,31.20
2019-04-04T07:39:53.910Z,31.10
2019-04-04T07:42:40.382Z,31.10
2019-04-04T07:45:26.973Z,31.10
2019-04-04T07:48:12.760Z,31.00
2019-04-04T07:50:59.280Z,31.00
2019-04-04T07:53:45.231Z,30.90
2019-04-04T07:56:31.539Z,30.80
2019-04-04T07:59:17.520Z,30.60
2019-04-04T08:02:03.803Z,30.50
2019-04-04T08:04:49.870Z,30.50
2019-04-04T08:07:36.827Z,30.30
2019-04-04T08:10:22.883Z,30.10
2019-04-04T08:13:09.085Z,30.00
2019-04-04T08:15:55.816Z,30.00
2019-04-04T08:18:41.979Z,29.90
2019-04-04T08:21:28.111Z,29.80
2019-04-04T08:24:14.458Z,29.80
2019-04-04T08:27:00.547Z,29.70
2019-04-04T08:29:47.639Z,29.60
2019-04-04T08:32:33.831Z,29.60
2019-04-04T08:35:19.932Z,29.50
2019-04-04T08:38:05.815Z,29.50
2019-04-04T08:40:52.279Z,29.50
2019-04-04T08:43:38.432Z,29.50
2019-04-04T08:46:24.784Z,29.50
2019-04-04T08:49:10.851Z,29.50
2019-04-04T08:51:57.019Z,29.50
2019-04-04T08:54:42.849Z,29.50
2019-04-04T08:57:29.149Z,29.40
2019-04-04T09:00:15.244Z,29.30
2019-04-04T09:03:01.428Z,29.30
2019-04-04T09:05:47.524Z,29.10
2019-04-04T09:08:33.905Z,29.10
2019-04-04T09:11:20.652Z,29.10
2019-04-04T09:14:06.301Z,29.10
2019-04-04T09:16:52.429Z,29.10
2019-04-04T09:19:38.216Z,29.10
2019-04-04T09:22:24.405Z,29.10
2019-04-04T09:25:10.946Z,29.10
2019-04-04T09:27:57.292Z,29.10
2019-04-04T09:30:43.406Z,29.20
2019-04-04T09:33:29.719Z,29.30
2019-04-04T09:36:15.819Z,29.30
2019-04-04T09:39:02.281Z,29.40
2019-04-04T09:41:49.361Z,29.40
2019-04-04T09:44:35.397Z,29.40
2019-04-04T09:47:21.619Z,29.50
2019-04-04T09:50:08.475Z,29.50
2019-04-04T09:52:54.479Z,29.60
2019-04-04T09:55:40.147Z,29.60
2019-04-04T09:58:26.983Z,29.70
2019-04-04T10:01:13.051Z,29.70
2019-04-04T10:03:59.419Z,29.80
2019-04-04T10:06:45.451Z,29.80
2019-04-04T10:09:31.639Z,29.90
2019-04-04T10:12:17.879Z,30.00
2019-04-04T10:15:04.358Z,30.00
2019-04-04T10:17:50.326Z,30.10
2019-04-04T10:20:36.559Z,30.20
2019-04-04T10:23:22.644Z,30.20
2019-04-04T10:26:08.432Z,30.30
2019-04-04T10:28:54.482Z,30.30
2019-04-04T10:31:40.607Z,30.40
2019-04-04T10:34:28.413Z,30.50
2019-04-04T10:37:14.652Z,30.70
2019-04-04T10:40:00.656Z,30.70
2019-04-04T10:42:46.688Z,30.80
2019-04-04T10:45:32.906Z,31.00
2019-04-04T10:48:19.045Z,31.00
2019-04-04T10:51:05.299Z,31.10
2019-04-04T10:53:51.646Z,31.30
2019-04-04T10:56:37.780Z,31.30
2019-04-04T10:59:24.022Z,31.40
2019-04-04T11:02:10.175Z,31.50
2019-04-04T11:04:56.039Z,31.60
2019-04-04T11:07:42.071Z,31.80
2019-04-04T11:10:28.068Z,31.80
2019-04-04T11:13:14.437Z,32.00
2019-04-04T11:16:00.668Z,32.00
2019-04-04T11:18:46.687Z,32.10
2019-04-04T11:21:32.665Z,32.20
2019-04-04T11:24:18.747Z,32.30
2019-04-04T11:27:05.140Z,32.40
2019-04-04T11:29:51.315Z,32.40
2019-04-04T11:32:37.396Z,32.50
2019-04-04T11:35:23.026Z,32.50
2019-04-04T11:38:09.277Z,32.70
2019-04-04T11:40:55.591Z,32.70
2019-04-04T11:43:41.551Z,32.80
2019-04-04T11:46:27.643Z,32.80
2019-04-04T11:49:14.706Z,32.90
2019-04-04T11:52:00.891Z,33.00
2019-04-04T11:54:57.786Z,33.00
2019-04-04T11:57:43.707Z,33.10
2019-04-04T12:00:31.955Z,33.10
2019-04-04T12:03:17.705Z,33.30
2019-04-04T12:06:03.912Z,33.40
2019-04-04T12:08:50.024Z,33.40
2019-04-04T12:11:37.336Z,33.60
2019-04-04T12:14:23.570Z,33.60
2019-04-04T12:17:09.630Z,33.70
2019-04-04T12:19:55.799Z,33.80
2019-04-04T12:22:41.915Z,33.70
2019-04-04T12:25:27.960Z,33.80
2019-04-04T12:28:14.430Z,34.00
2019-04-04T12:31:00.465Z,34.00
2019-04-04T12:33:47.224Z,34.00
2019-04-04T12:36:33.510Z,34.00
2019-04-04T12:39:20.545Z,34.10
2019-04-04T12:42:06.680Z,34.20
2019-04-04T12:44:52.946Z,34.20
2019-04-04T12:47:39.046Z,34.30
2019-04-04T12:50:25.364Z,34.20
2019-04-04T12:53:11.517Z,34.30
2019-04-04T12:55:57.648Z,34.30
2019-04-04T12:58:44.296Z,34.40
2019-04-04T13:01:31.492Z,34.40
2019-04-04T13:04:17.603Z,34.40
2019-04-04T13:07:03.811Z,34.40
2019-04-04T13:09:49.969Z,34.40
2019-04-04T13:12:36.114Z,34.40
2019-04-04T13:15:22.335Z,34.50
2019-04-04T13:18:08.476Z,34.60
2019-04-04T13:20:54.563Z,34.70
2019-04-04T13:23:40.885Z,34.60
2019-04-04T13:26:27.085Z,34.60
2019-04-04T13:29:13.166Z,34.70
2019-04-04T13:31:59.354Z,34.70
2019-04-04T13:34:58.758Z,34.70
2019-04-04T13:37:36.258Z,34.90
2019-04-04T13:40:22.321Z,34.90
2019-04-04T13:43:08.449Z,34.90
2019-04-04T13:45:54.609Z,35.00
2019-04-04T13:48:43.107Z,35.10
2019-04-04T13:51:29.469Z,35.30
2019-04-04T13:54:15.599Z,35.40
2019-04-04T13:57:01.936Z,35.40
2019-04-04T13:59:48.395Z,35.50
2019-04-04T14:02:35.082Z,35.80
2019-04-04T14:05:21.768Z,35.90
2019-04-04T14:08:08.212Z,35.90
2019-04-04T14:10:58.390Z,36.10
2019-04-04T14:13:42.369Z,36.10
2019-04-04T14:16:28.512Z,36.20
2019-04-04T14:19:14.660Z,36.30
2019-04-04T14:22:00.921Z,36.30
2019-04-04T14:24:48.212Z,36.50
2019-04-04T14:27:34.266Z,36.50
2019-04-04T14:30:20.867Z,36.50
2019-04-04T14:33:07.019Z,36.60
2019-04-04T14:35:53.168Z,36.70
2019-04-04T14:38:39.451Z,36.70
2019-04-04T14:41:25.795Z,36.80
2019-04-04T14:44:11.729Z,36.80
2019-04-04T14:46:58.773Z,36.80
2019-04-04T14:49:45.833Z,36.90
2019-04-04T14:52:32.203Z,36.90
2019-04-04T14:55:18.241Z,37.00
2019-04-04T14:58:04.321Z,37.10
2019-04-04T15:00:50.471Z,37.00
2019-04-04T15:03:36.595Z,37.00
2019-04-04T15:06:22.225Z,37.00
2019-04-04T15:09:10.611Z,37.00
2019-04-04T15:11:56.531Z,37.10
2019-04-04T15:14:42.661Z,37.00
2019-04-04T15:17:29.011Z,37.00
2019-04-04T15:20:15.316Z,37.20
2019-04-04T15:23:01.520Z,37.20
2019-04-04T15:25:47.843Z,37.20
2019-04-04T15:28:33.975Z,37.20
2019-04-04T15:31:20.247Z,37.90
2019-04-04T15:34:06.377Z,37.40
2019-04-04T15:36:52.541Z,37.40
2019-04-04T15:39:38.791Z,37.50
2019-04-04T15:42:25.770Z,37.60
2019-04-04T15:45:12.296Z,38.10
2019-04-04T15:47:58.189Z,38.10
2019-04-04T15:50:44.373Z,38.70
2019-04-04T15:53:30.623Z,38.60
2019-04-04T15:56:16.395Z,39.10
2019-04-04T15:59:02.212Z,39.40
2019-04-04T16:01:48.295Z,40.10
2019-04-04T16:04:34.500Z,41.40
2019-04-04T16:07:20.545Z,41.10
2019-04-04T16:10:08.061Z,41.20
2019-04-04T16:12:53.899Z,41.70
2019-04-04T16:15:40.063Z,42.50
2019-04-04T16:18:25.799Z,42.70
2019-04-04T16:21:13.095Z,43.30
2019-04-04T16:23:59.211Z,42.60
2019-04-04T16:26:45.639Z,42.70
2019-04-04T16:29:31.848Z,42.50
2019-04-04T16:32:18.077Z,42.60
2019-04-04T16:35:05.538Z,42.20
2019-04-04T16:37:51.527Z,42.50
2019-04-04T16:40:37.707Z,42.40
2019-04-04T16:43:23.911Z,42.40
2019-04-04T16:46:10.032Z,42.30
2019-04-04T16:48:55.900Z,42.20
2019-04-04T16:51:41.965Z,42.40
2019-04-04T16:54:28.948Z,42.40
2019-04-04T16:57:14.675Z,42.50
2019-04-04T17:00:01.023Z,42.10
2019-04-04T17:02:47.119Z,42.20
2019-04-04T17:05:33.371Z,42.40
2019-04-04T17:08:19.512Z,42.70
2019-04-04T17:11:05.175Z,43.30
2019-04-04T17:13:51.410Z,43.10
2019-04-04T17:16:37.556Z,42.50
2019-04-04T17:19:23.716Z,42.10
2019-04-04T17:22:09.928Z,42.40
2019-04-04T17:24:57.427Z,41.90
2019-04-04T17:27:43.211Z,42.00
2019-04-04T17:30:29.311Z,41.80
2019-04-04T17:33:15.049Z,41.60
2019-04-04T17:36:01.378Z,41.50
2019-04-04T17:38:49.109Z,42.10
2019-04-04T17:41:35.237Z,42.40
2019-04-04T17:44:21.705Z,41.90
2019-04-04T17:47:07.686Z,41.80
2019-04-04T17:49:55.984Z,41.70
2019-04-04T17:52:42.330Z,41.60
2019-04-04T17:55:28.667Z,41.30
2019-04-04T17:58:16.066Z,41.20
2019-04-04T18:01:06.824Z,40.90
2019-04-04T18:03:52.976Z,40.80
2019-04-04T18:06:40.740Z,40.80
2019-04-04T18:09:31.948Z,40.80
2019-04-04T18:12:16.865Z,40.70
2019-04-04T18:15:02.784Z,41.10
2019-04-04T18:17:49.412Z,41.20
2019-04-04T18:20:35.663Z,41.30
2019-04-04T18:23:21.812Z,41.30
2019-04-04T18:26:07.991Z,41.30
2019-04-04T18:32:27.999Z,41.00
2019-04-04T18:35:15.367Z,40.90
2019-04-04T18:38:01.748Z,40.90
2019-04-04T18:40:48.136Z,40.80
2019-04-04T18:43:34.563Z,40.80
2019-04-04T18:46:21.020Z,40.70
2019-04-04T18:49:07.245Z,40.70
2019-04-04T18:51:53.200Z,40.70
2019-04-04T18:54:39.449Z,40.70
2019-04-04T18:57:25.844Z,40.70
2019-04-04T19:00:13.933Z,40.70
2019-04-04T19:03:00.321Z,40.70
2019-04-04T19:05:46.691Z,40.60
2019-04-04T19:08:33.120Z,40.60
2019-04-04T19:11:18.930Z,40.50
2019-04-04T19:14:05.405Z,40.50
2019-04-04T19:16:51.931Z,40.50
2019-04-04T19:19:38.194Z,40.30
2019-04-04T19:22:24.748Z,40.30
2019-04-04T19:25:13.665Z,40.20
2019-04-04T19:28:00.382Z,40.20
2019-04-04T19:30:47.237Z,40.20
2019-04-04T19:33:33.739Z,40.20
2019-04-04T19:36:20.373Z,40.20
2019-04-04T19:39:10.043Z,40.10
2019-04-04T19:41:56.275Z,40.10
2019-04-04T19:44:52.587Z,40.10
2019-04-04T19:47:30.627Z,40.10
2019-04-04T19:50:16.985Z,40.10
2019-04-04T19:53:03.556Z,40.20
2019-04-04T19:55:53.208Z,40.10
2019-04-04T19:58:44.153Z,40.00
2019-04-04T20:01:30.700Z,40.00
2019-04-04T20:04:17.105Z,40.00
2019-04-04T20:07:03.774Z,40.00
2019-04-04T20:09:50.342Z,40.00
2019-04-04T20:12:36.725Z,39.80
2019-04-04T20:15:23.992Z,40.00
2019-04-04T20:18:10.369Z,39.80
2019-04-04T20:20:57.017Z,39.80
2019-04-04T20:23:43.297Z,39.70
2019-04-04T20:26:29.816Z,39.80
2019-04-04T20:29:16.251Z,39.70
2019-04-04T20:32:02.469Z,39.60
2019-04-04T20:34:48.864Z,39.50
2019-04-04T20:37:35.419Z,39.50
2019-04-04T20:40:21.307Z,39.50
2019-04-04T20:43:07.963Z,39.50
2019-04-04T20:45:54.463Z,39.40
2019-04-04T20:48:40.871Z,39.40
2019-04-04T20:51:27.255Z,39.40
2019-04-04T20:54:14.897Z,39.30
2019-04-04T20:57:01.113Z,39.30
2019-04-04T20:59:47.548Z,39.20
2019-04-04T21:02:33.883Z,39.20
2019-04-04T21:05:20.653Z,39.20
2019-04-04T21:08:06.613Z,39.20
2019-04-04T21:10:54.555Z,39.10
2019-04-04T21:13:41.152Z,39.10
2019-04-04T21:16:28.259Z,39.00
2019-04-04T21:19:14.194Z,39.00
2019-04-04T21:22:00.598Z,39.00
2019-04-04T21:24:47.083Z,38.90
2019-04-04T21:27:33.507Z,38.90
2019-04-04T21:30:20.817Z,39.40
2019-04-04T21:33:07.243Z,38.90
2019-04-04T21:35:53.537Z,38.80
2019-04-04T21:38:41.044Z,38.80
2019-04-04T21:41:28.399Z,38.80
2019-04-04T21:44:15.016Z,38.80
2019-04-04T21:47:01.285Z,38.70
2019-04-04T21:49:48.000Z,38.60
2019-04-04T21:52:34.728Z,38.60
2019-04-04T21:55:20.944Z,38.60
2019-04-04T21:58:07.299Z,38.60
2019-04-04T22:00:54.969Z,38.50
2019-04-04T22:03:41.072Z,38.50
2019-04-04T22:06:27.500Z,38.50
2019-04-04T22:09:16.383Z,38.50
2019-04-04T22:12:02.485Z,38.50
2019-04-04T22:14:48.904Z,38.40
2019-04-04T22:17:35.385Z,38.40
2019-04-04T22:20:21.680Z,38.50
2019-04-04T22:23:07.967Z,38.60
2019-04-04T22:25:54.488Z,38.50
2019-04-04T22:28:40.824Z,38.40
2019-04-04T22:31:27.215Z,38.50
2019-04-04T22:34:13.679Z,38.50
2019-04-04T22:36:59.919Z,38.40
2019-04-04T22:39:45.988Z,38.40
2019-04-04T22:42:32.152Z,38.40
2019-04-04T22:45:18.419Z,38.40
2019-04-04T22:48:04.408Z,38.40
2019-04-04T22:50:50.821Z,38.50
2019-04-04T22:53:37.153Z,38.50
2019-04-04T22:56:23.691Z,38.40
2019-04-04T22:59:09.871Z,38.40
2019-04-04T23:01:57.106Z,38.50
2019-04-04T23:04:43.622Z,38.50
2019-04-04T23:07:29.811Z,38.50
2019-04-04T23:10:15.738Z,38.40
2019-04-04T23:13:03.138Z,38.50
2019-04-04T23:15:49.455Z,38.40
2019-04-04T23:18:35.898Z,38.50
2019-04-04T23:21:23.382Z,38.80
2019-04-04T23:24:09.696Z,38.50
2019-04-04T23:26:56.028Z,38.40
2019-04-04T23:29:42.808Z,38.40
2019-04-04T23:32:28.967Z,38.40
2019-04-04T23:35:16.751Z,38.40
2019-04-04T23:38:03.260Z,38.30
2019-04-04T23:40:49.495Z,38.30
2019-04-04T23:43:35.725Z,38.40
2019-04-04T23:46:21.867Z,38.30
2019-04-04T23:49:07.615Z,38.30
2019-04-04T23:51:55.317Z,38.30
2019-04-04T23:54:41.867Z,38.30
2019-04-04T23:57:28.239Z,38.30
